Time;durP1;ratioP1;P1;durP2;ratioP2;P2;SDS_P1;SDS_P2;PMS_P1;PMS_P2;Temp;Humidity;BMP_temperature;BMP_pressure;BME280_temperature;BME280_humidity;BME280_pressure;Samples;Min_cycle;Max_cycle;Signal;HPM_P1;HPM_P2
2022/05/09 00:01:57;;;;;;;11.65;2.78;;;;;;;9.42;65.39;102092.97;5054282;28;20051;-67
2022/05/09 00:04:25;;;;;;;9.88;2.97;;;;;;;9.41;66.40;102093.84;5043851;28;20906;-68
2022/05/09 00:06:52;;;;;;;11.45;2.63;;;;;;;9.33;66.88;102092.31;5060451;28;20048;-67
2022/05/09 00:09:19;;;;;;;18.75;3.17;;;;;;;9.28;66.39;102088.97;5070318;28;20330;-68
2022/05/09 00:11:46;;;;;;;13.35;3.33;;;;;;;9.27;67.73;102086.38;5043217;28;20510;-67
2022/05/09 00:14:17;;;;;;;9.88;3.15;;;;;;;9.24;67.29;102087.34;5055197;28;20057;-67
2022/05/09 00:16:44;;;;;;;12.45;2.70;;;;;;;9.21;67.73;102084.81;5064972;28;20075;-67
2022/05/09 00:19:13;;;;;;;12.07;3.13;;;;;;;9.17;68.30;102091.03;5062441;28;20055;-68
2022/05/09 00:21:41;;;;;;;14.02;3.05;;;;;;;9.14;68.57;102093.78;5055116;28;20045;-69
2022/05/09 00:24:12;;;;;;;10.85;3.25;;;;;;;9.09;68.89;102093.03;5043235;28;20036;-68
2022/05/09 00:26:40;;;;;;;12.18;3.08;;;;;;;9.08;69.76;102100.06;5041252;28;20062;-68
2022/05/09 00:29:10;;;;;;;15.80;3.85;;;;;;;9.06;69.01;102096.63;5065756;28;20149;-68
2022/05/09 00:31:39;;;;;;;20.15;3.80;;;;;;;9.02;69.41;102095.00;5050715;28;20774;-69
2022/05/09 00:34:07;;;;;;;13.95;3.15;;;;;;;8.99;70.48;102091.59;5039487;28;20052;-69
2022/05/09 00:36:34;;;;;;;9.93;3.22;;;;;;;8.96;69.46;102100.44;5061507;28;20056;-69
2022/05/09 00:39:02;;;;;;;11.43;3.88;;;;;;;8.94;70.90;102098.75;5066498;28;20048;-68
2022/05/09 00:41:34;;;;;;;16.08;4.47;;;;;;;8.88;70.89;102094.53;5062113;28;20052;-68
2022/05/09 00:44:13;;;;;;;12.80;3.50;;;;;;;8.86;70.57;102096.31;5044249;28;20060;-69
2022/05/09 00:46:44;;;;;;;17.17;4.28;;;;;;;8.84;71.13;102090.28;5037018;28;20526;-68
2022/05/09 00:49:34;;;;;;;16.23;3.97;;;;;;;8.82;72.34;102102.56;5057177;28;20602;-69
2022/05/09 00:52:12;;;;;;;15.65;3.65;;;;;;;8.77;71.89;102105.31;5068093;28;20059;-69
2022/05/09 00:54:44;;;;;;;12.23;3.88;;;;;;;8.76;71.98;102106.22;5046988;28;20052;-68
2022/05/09 00:57:15;;;;;;;16.73;3.70;;;;;;;8.74;72.64;102107.19;5057293;28;20045;-69
2022/05/09 00:59:43;;;;;;;13.25;3.22;;;;;;;8.71;72.78;102094.13;5060215;28;20078;-69
2022/05/09 01:02:12;;;;;;;13.63;3.75;;;;;;;8.68;72.87;102091.59;5055864;28;20105;-69
2022/05/09 01:04:57;;;;;;;22.08;5.20;;;;;;;8.64;74.12;102098.69;5062427;28;20536;-69
2022/05/09 01:07:25;;;;;;;18.48;3.80;;;;;;;8.58;73.14;102101.47;5059654;28;20545;-69
2022/05/09 01:09:52;;;;;;;9.98;3.40;;;;;;;8.57;73.24;102099.78;5067846;28;20040;-69
2022/05/09 01:12:22;;;;;;;11.50;3.13;;;;;;;8.54;73.64;102094.59;5060105;28;20376;-69
2022/05/09 01:14:50;;;;;;;21.08;4.40;;;;;;;8.55;73.83;102098.94;5056316;28;20154;-69
2022/05/09 01:17:17;;;;;;;11.93;3.00;;;;;;;8.54;74.52;102098.06;5056754;28;20142;-69
2022/05/09 01:19:47;;;;;;;13.60;3.72;;;;;;;8.51;74.29;102097.28;5053548;28;20132;-69
2022/05/09 01:22:23;;;;;;;10.90;3.65;;;;;;;8.49;74.28;102104.34;5060802;28;20055;-69
2022/05/09 01:24:52;;;;;;;13.35;3.70;;;;;;;8.48;74.14;102100.88;5066927;28;20057;-69
2022/05/09 01:27:25;;;;;;;13.43;4.70;;;;;;;8.46;74.45;102099.19;5079100;28;20060;-69
2022/05/09 01:30:09;;;;;;;14.90;3.22;;;;;;;8.43;74.65;102096.66;5057160;28;20427;-70
2022/05/09 01:32:55;;;;;;;15.02;4.05;;;;;;;8.41;74.69;102101.06;5057079;28;20048;-69
2022/05/09 01:35:25;;;;;;;14.18;3.92;;;;;;;8.39;74.82;102101.13;5044835;28;20530;-69
2022/05/09 01:38:02;;;;;;;13.82;3.40;;;;;;;8.38;74.33;102103.78;5067685;28;20123;-69
2022/05/09 01:40:30;;;;;;;13.68;3.30;;;;;;;8.37;74.32;102110.78;5062143;28;20068;-69
2022/05/09 01:42:57;;;;;;;11.82;3.70;;;;;;;8.31;74.74;102109.16;5053724;28;20542;-70
2022/05/09 01:51:52;;;;;;;10.75;3.90;;;;;;;8.20;76.19;102108.56;5065196;28;20048;-69
2022/05/09 01:54:19;;;;;;;15.40;4.32;;;;;;;8.18;75.96;102107.72;5053843;28;20494;-69
2022/05/09 01:56:46;;;;;;;12.15;4.07;;;;;;;8.17;76.17;102102.53;5067096;28;20540;-69
2022/05/09 01:59:13;;;;;;;14.38;4.18;;;;;;;8.13;76.65;102105.22;5043113;28;20055;-69
2022/05/09 02:01:46;;;;;;;12.90;3.28;;;;;;;8.13;76.28;102101.75;5064712;28;20056;-70
2022/05/09 02:04:14;;;;;;;18.92;3.95;;;;;;;8.13;77.37;102107.00;5064018;28;20036;-69
2022/05/09 02:06:42;;;;;;;15.73;3.72;;;;;;;8.13;77.01;102107.84;5051074;28;20064;-69
2022/05/09 02:09:10;;;;;;;13.07;3.50;;;;;;;8.13;77.00;102107.00;5065630;28;20178;-68
2022/05/09 02:11:37;;;;;;;13.50;4.05;;;;;;;8.11;77.16;102108.81;5069313;28;20414;-68
2022/05/09 02:14:05;;;;;;;15.90;3.63;;;;;;;8.10;77.80;102107.94;5071954;28;20399;-68
2022/05/09 02:16:33;;;;;;;16.52;3.72;;;;;;;8.07;78.36;102113.25;5072385;28;20060;-70
2022/05/09 02:19:00;;;;;;;14.90;3.40;;;;;;;8.06;78.43;102114.16;5049530;28;20045;-69
2022/05/09 02:21:27;;;;;;;8.40;3.45;;;;;;;8.05;78.00;102114.19;5047108;28;20047;-68
2022/05/09 02:23:55;;;;;;;14.43;3.42;;;;;;;8.03;79.09;102111.59;5058684;28;20067;-68
2022/05/09 02:26:24;;;;;;;19.25;3.65;;;;;;;8.02;78.61;102116.91;5060846;28;20048;-69
2022/05/09 02:28:51;;;;;;;11.35;3.92;;;;;;;7.99;79.29;102120.44;5062162;28;20461;-68
2022/05/09 02:31:20;;;;;;;19.23;5.88;;;;;;;7.97;78.47;102122.25;5058356;28;20056;-69
2022/05/09 02:33:48;;;;;;;11.68;3.75;;;;;;;7.95;79.83;102117.94;5061192;28;20064;-67
2022/05/09 02:36:15;;;;;;;19.60;3.85;;;;;;;7.90;80.29;102119.81;5061957;28;20059;-67
2022/05/09 02:38:42;;;;;;;14.23;3.35;;;;;;;7.86;80.07;102114.63;5062380;28;20059;-68
2022/05/09 02:41:09;;;;;;;15.88;4.63;;;;;;;7.86;80.24;102111.16;5058985;28;20141;-67
2022/05/09 02:43:37;;;;;;;11.88;3.53;;;;;;;7.83;80.59;102117.34;5070883;28;20113;-68
2022/05/09 02:46:04;;;;;;;12.50;3.97;;;;;;;7.82;80.96;102118.22;5073918;28;20044;-68
2022/05/09 02:48:33;;;;;;;14.13;4.18;;;;;;;7.80;80.86;102113.94;5062049;28;20107;-68
2022/05/09 02:51:00;;;;;;;12.63;3.42;;;;;;;7.80;81.24;102127.03;5054231;28;20066;-69
2022/05/09 02:53:27;;;;;;;11.27;4.15;;;;;;;7.78;81.55;102123.56;5067534;28;20056;-69
2022/05/09 02:55:55;;;;;;;15.20;4.38;;;;;;;7.77;81.78;102119.22;5058960;28;20058;-70
2022/05/09 02:58:22;;;;;;;16.67;4.57;;;;;;;7.76;82.21;102126.25;5060016;28;20094;-69
2022/05/09 03:00:50;;;;;;;11.60;4.70;;;;;;;7.78;82.76;102123.56;5061976;28;20053;-68
2022/05/09 03:06:04;;;;;;;14.75;4.53;;;;;;;7.76;83.37;102125.38;5065599;28;20147;-69
2022/05/09 03:08:31;;;;;;;14.00;4.70;;;;;;;7.75;83.07;102126.28;5068035;28;20135;-69
2022/05/09 03:10:58;;;;;;;10.93;4.32;;;;;;;7.74;82.87;102127.16;5065384;28;20056;-68
2022/05/09 03:13:25;;;;;;;10.35;4.05;;;;;;;7.72;83.36;102121.97;5069317;28;20044;-69
2022/05/09 03:15:53;;;;;;;13.00;4.25;;;;;;;7.70;83.45;102129.00;5074278;28;20067;-69
2022/05/09 03:18:24;;;;;;;14.20;4.00;;;;;;;7.70;83.79;102136.00;5063501;28;20112;-68
2022/05/09 03:20:54;;;;;;;11.80;5.10;;;;;;;7.68;83.84;102138.66;5060625;28;20390;-68
2022/05/09 03:23:21;;;;;;;16.88;4.35;;;;;;;7.68;83.96;102140.41;5077339;28;20135;-68
2022/05/09 03:25:48;;;;;;;16.88;5.00;;;;;;;7.69;83.55;102137.75;5068406;28;20045;-68
2022/05/09 03:28:22;;;;;;;11.43;4.82;;;;;;;7.69;84.22;102143.00;5063593;28;20049;-68
2022/05/09 03:30:52;;;;;;;15.45;5.00;;;;;;;7.67;85.11;102142.19;5062263;28;20057;-69
2022/05/09 03:33:24;;;;;;;15.13;5.15;;;;;;;7.66;84.64;102145.72;5061128;28;20079;-69
2022/05/09 03:35:52;;;;;;;17.05;4.93;;;;;;;7.66;85.54;102144.84;5069046;28;21095;-67
2022/05/09 03:38:20;;;;;;;12.93;4.25;;;;;;;7.66;85.11;102142.22;5068057;28;20054;-69
2022/05/09 03:40:47;;;;;;;16.13;5.30;;;;;;;7.66;85.32;102144.84;5069839;28;20411;-68
2022/05/09 03:43:14;;;;;;;12.30;4.68;;;;;;;7.64;85.63;102152.72;5075721;28;20062;-68
2022/05/09 03:45:44;;;;;;;16.05;4.93;;;;;;;7.64;85.42;102155.34;5065601;28;20059;-68
2022/05/09 03:48:11;;;;;;;19.23;6.05;;;;;;;7.66;85.73;102150.09;5059703;28;20053;-67
2022/05/09 03:50:38;;;;;;;15.38;5.57;;;;;;;7.64;85.55;102150.09;5047412;28;20049;-67
2022/05/09 03:53:05;;;;;;;12.45;4.72;;;;;;;7.65;85.87;102145.72;5054348;28;20059;-67
2022/05/09 03:55:33;;;;;;;15.13;4.85;;;;;;;7.66;85.14;102148.31;5047341;28;20051;-68
2022/05/09 03:58:02;;;;;;;15.35;5.07;;;;;;;7.67;85.26;102149.19;5059379;28;20049;-68
2022/05/09 04:00:32;;;;;;;18.10;5.88;;;;;;;7.68;85.49;102140.41;5058725;28;20067;-71
2022/05/09 04:03:01;;;;;;;19.80;4.95;;;;;;;7.72;85.07;102147.31;5064273;28;20052;-69
2022/05/09 04:05:32;;;;;;;17.13;5.10;;;;;;;7.75;85.85;102142.03;5073808;28;20497;-69
2022/05/09 04:08:01;;;;;;;18.58;5.95;;;;;;;7.76;86.87;102148.97;5072647;28;20930;-69
2022/05/09 04:10:31;;;;;;;18.20;5.15;;;;;;;7.73;86.74;102154.28;5072772;28;20051;-68
2022/05/09 04:12:59;;;;;;;17.35;5.32;;;;;;;7.75;86.56;102153.38;5066965;28;20044;-68
2022/05/09 04:18:18;;;;;;;11.30;4.88;;;;;;;7.85;86.27;102151.38;5073955;28;20049;-68
2022/05/09 04:20:50;;;;;;;17.90;5.20;;;;;;;7.90;86.50;102146.03;5059099;28;20063;-69
2022/05/09 04:23:17;;;;;;;15.77;4.93;;;;;;;7.95;85.61;102150.25;5044443;28;20064;-68
2022/05/09 04:25:45;;;;;;;16.75;4.78;;;;;;;7.99;86.08;102156.31;5059168;28;20057;-68
2022/05/09 04:28:14;;;;;;;16.15;4.88;;;;;;;8.03;85.42;102152.72;5060864;28;20132;-68
2022/05/09 04:30:42;;;;;;;12.73;5.10;;;;;;;8.07;85.62;102164.84;5041812;28;20044;-68
2022/05/09 04:33:09;;;;;;;15.75;5.65;;;;;;;8.09;85.84;102163.91;5059230;28;20129;-69
2022/05/09 04:35:39;;;;;;;14.57;5.57;;;;;;;8.14;86.59;102163.78;5058606;28;20535;-69
2022/05/09 04:38:07;;;;;;;15.98;5.32;;;;;;;8.18;86.73;102156.72;5060578;28;20048;-69
2022/05/09 04:40:35;;;;;;;16.95;5.53;;;;;;;8.22;85.86;102161.00;5061770;28;20750;-69
2022/05/09 04:43:03;;;;;;;15.45;5.20;;;;;;;8.28;85.59;102164.31;5045841;28;20044;-69
2022/05/09 04:45:32;;;;;;;12.77;4.97;;;;;;;8.33;86.12;102162.47;5061990;28;20055;-69
2022/05/09 04:47:59;;;;;;;20.52;5.95;;;;;;;8.44;86.41;102166.59;5074887;28;20228;-69
2022/05/09 04:50:27;;;;;;;14.75;5.35;;;;;;;8.50;86.08;102163.81;5054428;28;20052;-69
2022/05/09 04:52:55;;;;;;;16.75;5.82;;;;;;;8.58;85.15;102167.09;5073015;28;20555;-69
2022/05/09 04:55:22;;;;;;;17.95;6.70;;;;;;;8.63;85.42;102166.06;5068219;28;20067;-69
2022/05/09 04:57:50;;;;;;;17.27;5.22;;;;;;;8.68;85.04;102163.34;5063480;28;20060;-69
2022/05/09 05:00:28;;;;;;;13.68;5.78;;;;;;;8.78;84.89;102159.59;5058332;28;20055;-69
2022/05/09 05:02:55;;;;;;;19.77;5.85;;;;;;;8.86;84.67;102164.59;5041598;28;20080;-70
2022/05/09 05:05:24;;;;;;;12.13;5.80;;;;;;;8.90;84.24;102161.00;5059294;28;20044;-69
2022/05/09 05:07:52;;;;;;;10.27;5.57;;;;;;;9.00;83.97;102175.59;5045992;28;20171;-69
2022/05/09 05:10:26;;;;;;;12.52;6.07;;;;;;;9.07;83.66;102171.91;5060996;28;20063;-69
2022/05/09 05:12:56;;;;;;;17.15;6.40;;;;;;;9.10;83.72;102174.47;5056567;28;20055;-70
2022/05/09 05:15:27;;;;;;;15.75;5.38;;;;;;;9.18;83.35;102173.34;5058168;28;20052;-70
2022/05/09 05:17:54;;;;;;;13.63;5.65;;;;;;;9.26;83.00;102176.63;5057207;28;20123;-69
2022/05/09 05:20:22;;;;;;;14.50;5.78;;;;;;;9.31;82.42;102180.00;5063389;28;20045;-69
2022/05/09 05:22:50;;;;;;;12.15;5.93;;;;;;;9.38;81.55;102176.28;5066072;28;20049;-68
2022/05/09 05:25:20;;;;;;;11.85;5.32;;;;;;;9.48;81.35;102188.25;5068492;28;20052;-68
2022/05/09 05:27:47;;;;;;;13.98;6.03;;;;;;;9.58;80.83;102184.44;5078057;28;20056;-68
2022/05/09 05:30:15;;;;;;;10.13;5.43;;;;;;;9.68;80.60;102178.91;5057972;28;20139;-68
2022/05/09 05:32:43;;;;;;;10.32;5.97;;;;;;;9.74;80.50;102179.59;5054555;28;20135;-68
2022/05/09 05:35:16;;;;;;;15.15;7.05;;;;;;;9.84;80.34;102182.78;5062189;28;20415;-69
2022/05/09 05:41:56;;;;;;;14.35;6.60;;;;;;;10.06;78.26;102185.63;5059762;28;20473;-68
2022/05/09 05:44:23;;;;;;;15.68;6.03;;;;;;;10.19;78.16;102173.78;5062726;28;20387;-69
2022/05/09 05:46:51;;;;;;;9.18;5.45;;;;;;;10.30;77.45;102170.81;5065025;28;20064;-68
2022/05/09 05:49:18;;;;;;;14.95;5.55;;;;;;;10.39;77.30;102176.63;5062030;28;20064;-69
2022/05/09 05:51:45;;;;;;;10.75;6.03;;;;;;;10.47;77.13;102184.28;5068632;28;20057;-68
2022/05/09 05:54:12;;;;;;;17.90;6.03;;;;;;;10.57;76.68;102177.78;5063642;28;20068;-68
2022/05/09 05:56:39;;;;;;;13.25;5.75;;;;;;;10.68;75.60;102187.13;5065425;28;20040;-69
2022/05/09 05:59:08;;;;;;;12.00;6.20;;;;;;;10.74;74.63;102179.84;5064125;28;20036;-71
2022/05/09 06:01:35;;;;;;;13.23;5.75;;;;;;;10.81;75.21;102191.91;5061112;28;20052;-68
2022/05/09 06:04:02;;;;;;;15.63;6.55;;;;;;;10.88;74.33;102188.13;5059042;28;20128;-69
2022/05/09 06:06:29;;;;;;;11.30;5.75;;;;;;;11.03;74.63;102197.28;5059514;28;20067;-68
2022/05/09 06:08:57;;;;;;;14.70;7.90;;;;;;;11.05;72.86;102190.16;5045543;28;20078;-68
2022/05/09 06:11:25;;;;;;;16.13;5.95;;;;;;;11.12;73.31;102196.94;5061454;28;20084;-69
2022/05/09 06:13:52;;;;;;;12.35;5.70;;;;;;;11.27;72.57;102190.25;5064374;28;20063;-69
2022/05/09 06:16:19;;;;;;;16.45;7.82;;;;;;;11.40;72.38;102195.94;5049784;28;20479;-69
2022/05/09 06:18:51;;;;;;;19.05;8.68;;;;;;;11.46;71.72;102195.69;5065675;28;20061;-69
2022/05/09 06:21:19;;;;;;;19.75;8.55;;;;;;;11.55;71.51;102197.13;5063386;28;20135;-68
2022/05/09 06:23:48;;;;;;;13.02;6.32;;;;;;;11.65;71.02;102195.84;5061734;28;20067;-68
2022/05/09 06:26:16;;;;;;;18.00;7.25;;;;;;;11.80;70.03;102190.00;5069373;28;20526;-68
2022/05/09 06:28:43;;;;;;;13.90;6.20;;;;;;;11.92;69.87;102186.03;5064853;28;20095;-68
2022/05/09 06:31:10;;;;;;;14.50;6.80;;;;;;;12.07;68.92;102192.50;5074276;28;20526;-68
2022/05/09 06:33:39;;;;;;;11.98;6.68;;;;;;;12.25;68.25;102196.16;5070697;28;20071;-69
2022/05/09 06:36:08;;;;;;;17.33;8.23;;;;;;;12.31;68.42;102193.28;5075085;28;20037;-67
2022/05/09 06:38:35;;;;;;;24.17;10.50;;;;;;;12.35;67.74;102194.88;5065494;28;20515;-69
2022/05/09 06:41:02;;;;;;;19.98;8.70;;;;;;;12.46;67.27;102199.69;5059188;28;20045;-69
2022/05/09 06:43:30;;;;;;;17.13;7.53;;;;;;;12.55;66.88;102194.03;5065326;28;20056;-68
2022/05/09 06:45:57;;;;;;;18.60;7.78;;;;;;;12.70;66.28;102203.97;5057976;28;20043;-68
2022/05/09 06:48:25;;;;;;;19.17;6.47;;;;;;;12.76;65.75;102197.56;5063783;28;20060;-68
2022/05/09 06:50:52;;;;;;;15.73;6.75;;;;;;;12.89;65.97;102201.38;5062027;28;20099;-68
2022/05/09 06:53:20;;;;;;;14.57;7.07;;;;;;;13.02;65.08;102197.28;5069227;28;20170;-69
2022/05/09 06:55:49;;;;;;;15.82;6.80;;;;;;;13.14;64.56;102195.88;5045210;28;20052;-69
2022/05/09 06:58:21;;;;;;;11.40;5.95;;;;;;;13.24;63.79;102197.22;5064468;28;20048;-69
2022/05/09 07:00:48;;;;;;;22.00;8.65;;;;;;;13.25;63.42;102201.56;5062733;28;20053;-69
2022/05/09 07:03:16;;;;;;;16.92;7.50;;;;;;;13.38;63.57;102208.03;5043910;28;20055;-69
2022/05/09 07:05:45;;;;;;;11.63;5.50;;;;;;;13.53;63.12;102201.16;5063236;28;20048;-68
2022/05/09 07:08:12;;;;;;;15.90;7.05;;;;;;;13.70;63.00;102203.03;5047661;28;20068;-68
2022/05/09 07:10:40;;;;;;;25.63;10.43;;;;;;;13.80;62.29;102201.66;5064572;28;20102;-67
2022/05/09 07:13:07;;;;;;;28.15;10.50;;;;;;;13.96;62.02;102201.81;5065995;28;20075;-68
2022/05/09 07:15:35;;;;;;;15.43;7.32;;;;;;;13.99;61.38;102204.28;5066503;28;20040;-69
2022/05/09 07:18:03;;;;;;;13.18;6.88;;;;;;;14.18;60.92;102204.25;5067933;28;20048;-69
2022/05/09 07:20:33;;;;;;;12.50;5.50;;;;;;;14.29;59.50;102203.75;5060539;28;20063;-69
2022/05/09 07:23:09;;;;;;;9.63;4.97;;;;;;;14.38;59.47;102200.63;5064209;28;20657;-69
2022/05/09 07:25:37;;;;;;;14.82;5.30;;;;;;;14.58;58.70;102202.31;5068671;28;20037;-69
2022/05/09 07:28:04;;;;;;;12.85;6.22;;;;;;;14.64;57.93;102199.38;5066750;28;20048;-69
2022/05/09 07:30:32;;;;;;;11.40;5.15;;;;;;;14.72;57.29;102198.94;5059923;28;20604;-69
2022/05/09 07:32:59;;;;;;;13.50;5.75;;;;;;;14.88;57.75;102202.53;5062040;28;20434;-69
2022/05/09 07:35:26;;;;;;;12.10;5.68;;;;;;;14.96;57.14;102197.69;5066699;28;20048;-68
2022/05/09 07:37:54;;;;;;;12.40;5.35;;;;;;;15.08;56.95;102199.69;5069775;28;20052;-68
2022/05/09 07:40:27;;;;;;;11.13;5.50;;;;;;;15.27;56.54;102204.91;5063247;28;20045;-68
2022/05/09 07:42:54;;;;;;;11.57;5.38;;;;;;;15.36;55.54;102200.91;5067744;28;20044;-68
2022/05/09 07:45:22;;;;;;;14.80;5.85;;;;;;;15.45;55.31;102205.72;5066622;28;20578;-69
2022/05/09 07:47:49;;;;;;;10.95;5.63;;;;;;;15.59;55.05;102204.94;5060049;28;20478;-68
2022/05/09 07:50:17;;;;;;;7.95;4.80;;;;;;;15.69;54.83;102207.03;5058104;28;20061;-69
2022/05/09 07:52:44;;;;;;;12.00;5.22;;;;;;;15.83;54.72;102208.94;5068699;28;20040;-70
2022/05/09 07:55:15;;;;;;;9.93;5.15;;;;;;;15.93;54.37;102194.19;5058857;28;20051;-70
2022/05/09 07:57:43;;;;;;;11.18;5.65;;;;;;;15.93;54.11;102204.81;5084350;28;20052;-70
2022/05/09 08:00:11;;;;;;;14.23;5.65;;;;;;;16.01;54.29;102199.06;5063692;28;20137;-70
2022/05/09 08:02:42;;;;;;;17.20;5.80;;;;;;;16.20;53.99;102198.88;5026909;28;20151;-70
2022/05/09 08:05:10;;;;;;;12.02;5.63;;;;;;;16.35;53.34;102187.38;5072356;28;20048;-70
2022/05/09 08:07:38;;;;;;;12.10;5.72;;;;;;;16.42;52.41;102188.69;5095139;28;20060;-71
2022/05/09 08:10:08;;;;;;;12.05;6.18;;;;;;;16.52;52.86;102189.00;5079567;28;20059;-69
2022/05/09 08:12:37;;;;;;;17.73;5.78;;;;;;;16.73;52.52;102189.56;5078872;28;20060;-70
2022/05/09 08:15:07;;;;;;;14.15;6.22;;;;;;;16.89;51.95;102189.53;5063112;28;20053;-69
2022/05/09 08:17:37;;;;;;;11.27;5.05;;;;;;;16.94;51.56;102182.13;5061207;28;20048;-69
2022/05/09 08:20:06;;;;;;;11.30;5.45;;;;;;;17.01;50.71;102179.91;5063586;28;20048;-69
2022/05/09 08:22:34;;;;;;;9.23;4.70;;;;;;;17.14;50.81;102178.22;5052872;28;20558;-69
2022/05/09 08:25:03;;;;;;;11.10;5.43;;;;;;;17.20;50.56;102183.16;5069593;28;20056;-70
2022/05/09 08:27:33;;;;;;;18.08;6.78;;;;;;;17.18;50.94;102183.25;5064826;28;20159;-69
2022/05/09 08:30:00;;;;;;;12.93;5.47;;;;;;;17.26;49.56;102181.94;5040096;28;20057;-69
2022/05/09 08:32:28;;;;;;;11.48;5.63;;;;;;;17.44;49.96;102183.44;5069773;28;20425;-68
2022/05/09 08:34:56;;;;;;;10.90;5.20;;;;;;;17.63;50.11;102185.78;5041975;28;20054;-69
2022/05/09 08:37:24;;;;;;;10.27;5.38;;;;;;;17.77;49.54;102171.63;5044424;28;20064;-69
2022/05/09 08:39:52;;;;;;;15.63;5.50;;;;;;;17.81;49.11;102176.66;5028167;28;20052;-69
2022/05/09 08:42:26;;;;;;;12.63;5.60;;;;;;;17.85;49.51;102169.31;5044364;28;20076;-68
2022/05/09 08:45:05;;;;;;;11.43;5.43;;;;;;;18.00;48.04;102176.28;5067526;28;20067;-69
2022/05/09 08:47:49;;;;;;;13.05;5.15;;;;;;;18.23;47.85;102166.78;5041335;28;20052;-69
2022/05/09 08:50:19;;;;;;;10.70;4.60;;;;;;;18.34;47.15;102168.75;5062864;28;20087;-68
2022/05/09 08:52:53;;;;;;;10.65;4.53;;;;;;;18.45;46.61;102167.03;5046387;28;20059;-69
2022/05/09 08:55:27;;;;;;;12.18;5.20;;;;;;;18.52;45.89;102172.84;5055628;28;20222;-69
2022/05/09 08:58:00;;;;;;;9.55;4.38;;;;;;;18.59;45.77;102171.44;5043830;28;20383;-69
2022/05/09 09:00:31;;;;;;;11.57;4.38;;;;;;;18.74;45.60;102171.41;5064620;28;20543;-70
2022/05/09 09:03:00;;;;;;;6.68;4.13;;;;;;;18.87;45.16;102172.25;5056554;28;20053;-69
2022/05/09 09:05:32;;;;;;;12.57;4.88;;;;;;;18.94;44.18;102170.84;5062438;28;20058;-69
2022/05/09 09:08:03;;;;;;;12.77;4.75;;;;;;;19.03;43.68;102169.38;5060541;28;20060;-68
2022/05/09 09:10:43;;;;;;;10.43;4.03;;;;;;;19.10;42.83;102163.50;5044610;28;20248;-70
2022/05/09 09:13:29;;;;;;;12.65;4.25;;;;;;;19.12;42.30;102160.72;5064873;28;20064;-69
2022/05/09 09:16:29;;;;;;;12.98;4.65;;;;;;;19.19;42.99;102157.50;5061818;28;20054;-70
2022/05/09 09:19:24;;;;;;;12.68;4.78;;;;;;;19.25;43.39;102171.38;5063608;28;20051;-70
2022/05/09 09:22:20;;;;;;;12.05;4.07;;;;;;;19.41;43.33;102162.16;5043545;28;20065;-70
2022/05/09 09:24:48;;;;;;;10.70;4.10;;;;;;;19.54;42.41;102159.44;5045188;28;20044;-70
2022/05/09 09:27:34;;;;;;;7.78;3.85;;;;;;;19.68;42.33;102166.50;5060560;28;20044;-70
2022/05/09 09:30:10;;;;;;;13.00;4.18;;;;;;;19.91;42.48;102162.16;5063519;28;20060;-70
2022/05/09 09:32:39;;;;;;;16.67;4.82;;;;;;;20.05;42.72;102159.31;5067596;28;20048;-69
2022/05/09 09:35:24;;;;;;;12.25;4.35;;;;;;;20.00;41.11;102165.97;5048011;28;20058;-70
2022/05/09 09:37:55;;;;;;;16.13;3.97;;;;;;;20.05;40.49;102155.78;5045132;28;20056;-70
2022/05/09 09:40:23;;;;;;;10.32;3.92;;;;;;;20.14;39.64;102157.75;5030376;28;20037;-70
2022/05/09 09:42:55;;;;;;;11.45;3.35;;;;;;;20.22;39.65;102150.03;5059742;28;20064;-70
2022/05/09 09:45:33;;;;;;;7.75;3.65;;;;;;;20.33;38.93;102158.06;5060291;28;20070;-69
2022/05/09 09:48:10;;;;;;;9.38;3.45;;;;;;;20.37;39.37;102153.34;5061100;28;20040;-68
2022/05/09 09:50:50;;;;;;;11.20;3.60;;;;;;;20.39;38.83;102152.25;5047687;28;20064;-69
2022/05/09 09:53:36;;;;;;;8.00;3.30;;;;;;;20.41;39.09;102150.31;5057861;28;20150;-69
2022/05/09 09:56:08;;;;;;;13.55;3.72;;;;;;;20.36;38.58;102144.47;5061317;28;20439;-69
2022/05/09 09:58:38;;;;;;;7.07;2.95;;;;;;;20.34;37.51;102140.19;5046026;28;20356;-69
2022/05/09 10:01:14;;;;;;;9.98;3.63;;;;;;;20.36;37.50;102148.97;5061933;28;20036;-70
2022/05/09 10:03:44;;;;;;;12.25;3.60;;;;;;;20.38;38.00;102139.84;5044696;28;20084;-69
2022/05/09 10:06:21;;;;;;;12.82;3.35;;;;;;;20.41;37.77;102139.63;5062749;28;20044;-68
2022/05/09 10:08:59;;;;;;;14.32;3.80;;;;;;;20.46;36.00;102139.25;5043090;28;20949;-69
2022/05/09 10:11:29;;;;;;;9.18;3.55;;;;;;;20.60;36.56;102130.22;5058944;28;20063;-68
2022/05/09 10:14:00;;;;;;;8.98;2.95;;;;;;;20.75;36.26;102131.69;5067106;28;20549;-69
2022/05/09 10:16:31;;;;;;;9.68;3.17;;;;;;;20.80;35.93;102125.97;5075421;28;20041;-68
2022/05/09 10:19:01;;;;;;;7.72;3.08;;;;;;;20.89;36.32;102125.25;5057242;28;20055;-69
2022/05/09 10:27:19;;;;;;;7.57;2.65;;;;;;;21.32;35.44;102116.50;5058371;28;20526;-68
2022/05/09 10:29:51;;;;;;;7.95;2.83;;;;;;;21.48;34.71;102099.06;5071075;28;20063;-69
2022/05/09 10:32:24;;;;;;;11.35;3.33;;;;;;;21.49;33.80;102102.59;5065369;28;20044;-68
2022/05/09 10:35:22;;;;;;;8.20;3.17;;;;;;;21.58;32.83;102098.31;5047932;28;20058;-68
2022/05/09 10:37:54;;;;;;;8.30;3.33;;;;;;;21.45;32.27;102099.31;5062495;28;20075;-69
2022/05/09 10:40:42;;;;;;;12.48;3.90;;;;;;;21.22;32.35;102086.91;5062737;28;20059;-70
2022/05/09 10:43:12;;;;;;;10.88;2.60;;;;;;;21.38;33.22;102086.53;5041617;28;20044;-69
2022/05/09 10:45:49;;;;;;;7.40;2.60;;;;;;;21.59;32.96;102090.13;5054297;28;20080;-71
2022/05/09 10:48:29;;;;;;;7.82;2.88;;;;;;;21.68;33.17;102078.66;5051432;28;20040;-70
2022/05/09 10:51:21;;;;;;;7.43;2.70;;;;;;;21.95;33.46;102082.69;5046465;28;20039;-70
2022/05/09 10:54:20;;;;;;;5.82;2.25;;;;;;;22.16;32.63;102067.50;5051998;28;20072;-69
2022/05/09 10:56:54;;;;;;;5.95;2.78;;;;;;;22.23;32.44;102073.19;5042152;28;20045;-69
2022/05/09 10:59:25;;;;;;;10.85;3.42;;;;;;;22.17;32.32;102071.88;5042991;28;20044;-70
2022/05/09 11:02:12;;;;;;;13.43;3.90;;;;;;;22.33;32.71;102059.81;5044268;28;20045;-70
2022/05/09 11:04:40;;;;;;;8.98;2.90;;;;;;;22.46;32.70;102069.38;5059426;28;20060;-70
2022/05/09 11:07:23;;;;;;;13.60;3.92;;;;;;;22.63;33.12;102061.69;5056765;28;20057;-70
2022/05/09 11:10:02;;;;;;;8.48;2.90;;;;;;;22.71;32.91;102065.41;5052043;28;20048;-69
2022/05/09 11:12:50;;;;;;;6.53;2.95;;;;;;;22.89;32.81;102062.09;5058945;28;20072;-69
2022/05/09 11:15:29;;;;;;;11.40;3.50;;;;;;;22.91;32.36;102060.97;5059960;28;20044;-69
2022/05/09 11:18:10;;;;;;;13.50;3.83;;;;;;;23.14;32.53;102061.63;5065823;28;20041;-69
2022/05/09 11:20:42;;;;;;;11.43;4.13;;;;;;;23.12;31.65;102047.50;5059635;28;20059;-71
2022/05/09 11:23:38;;;;;;;7.07;3.33;;;;;;;23.17;32.36;102039.00;5059046;28;20957;-69
2022/05/09 11:26:11;;;;;;;6.20;3.03;;;;;;;23.23;31.83;102033.91;5056992;28;20041;-69
2022/05/09 11:29:16;;;;;;;10.27;2.72;;;;;;;23.04;31.06;102039.25;5062536;28;20391;-69
2022/05/09 11:31:54;;;;;;;5.22;2.60;;;;;;;22.90;30.45;102036.97;5044745;28;20051;-72
2022/05/09 11:34:21;;;;;;;6.25;2.72;;;;;;;22.94;30.39;102035.72;5049876;28;20131;-72
2022/05/09 11:36:59;;;;;;;5.53;2.67;;;;;;;23.24;30.66;102029.44;5064110;28;20395;-72
2022/05/09 11:39:54;;;;;;;9.25;3.35;;;;;;;23.42;30.32;102030.44;5056300;28;20051;-71
2022/05/09 11:45:46;;;;;;;7.10;2.75;;;;;;;23.32;28.24;102023.34;5061767;28;20060;-72
2022/05/09 11:48:29;;;;;;;6.13;2.45;;;;;;;23.33;28.92;102027.75;5060554;28;20058;-71
2022/05/09 11:51:14;;;;;;;5.60;2.72;;;;;;;23.54;28.87;102020.38;5052124;28;20120;-72
2022/05/09 11:53:45;;;;;;;8.85;2.83;;;;;;;23.80;28.70;102020.69;5060763;28;20049;-72
2022/05/09 11:56:12;;;;;;;6.75;2.70;;;;;;;23.89;27.16;102021.69;5024550;28;20072;-72
2022/05/09 11:58:43;;;;;;;9.57;2.67;;;;;;;23.73;26.27;102023.13;5059947;28;20052;-72
2022/05/09 12:01:11;;;;;;;4.55;2.40;;;;;;;23.62;27.12;102025.06;5041792;28;20041;-72
2022/05/09 12:03:41;;;;;;;7.75;2.80;;;;;;;23.74;27.88;102024.81;5075166;28;20438;-72
2022/05/09 12:06:36;;;;;;;9.00;2.78;;;;;;;23.53;27.16;102023.22;5060197;28;20139;-72